sensor_id;sensor_type;location;lat;lon;timestamp;temperature;humidity
70851;DHT22;58475;49.662;9.636;2022-09-09T00:01:54;14.12;89.51
70851;DHT22;58475;49.662;9.636;2022-09-09T00:09:21;14.98;85.09
70851;DHT22;58475;49.662;9.636;2022-09-09T00:12:10;14.93;88.49
70851;DHT22;58475;49.662;9.636;2022-09-09T00:14:59;14.82;89.10
70851;DHT22;58475;49.662;9.636;2022-09-09T00:20:13;14.54;89.66
70851;DHT22;58475;49.662;9.636;2022-09-09T00:22:48;14.45;89.27
70851;DHT22;58475;49.662;9.636;2022-09-09T00:25:23;14.60;90.59
70851;DHT22;58475;49.662;9.636;2022-09-09T00:27:52;14.63;91.20
70851;DHT22;58475;49.662;9.636;2022-09-09T00:30:24;14.67;92.58
70851;DHT22;58475;49.662;9.636;2022-09-09T00:32:53;14.63;91.42
70851;DHT22;58475;49.662;9.636;2022-09-09T00:37:54;14.61;89.19
70851;DHT22;58475;49.662;9.636;2022-09-09T00:40:26;14.64;90.48
70851;DHT22;58475;49.662;9.636;2022-09-09T00:43:08;14.65;91.03
70851;DHT22;58475;49.662;9.636;2022-09-09T00:45:59;14.64;90.46
70851;DHT22;58475;49.662;9.636;2022-09-09T01:00:15;14.30;92.64
70851;DHT22;58475;49.662;9.636;2022-09-09T01:05:20;14.36;93.34
70851;DHT22;58475;49.662;9.636;2022-09-09T01:07:49;14.20;90.55
70851;DHT22;58475;49.662;9.636;2022-09-09T01:13:11;14.31;92.20
70851;DHT22;58475;49.662;9.636;2022-09-09T01:15:42;14.38;91.51
70851;DHT22;58475;49.662;9.636;2022-09-09T01:18:12;14.33;92.27
70851;DHT22;58475;49.662;9.636;2022-09-09T01:28:35;14.34;92.50
70851;DHT22;58475;49.662;9.636;2022-09-09T01:31:09;14.37;90.61
70851;DHT22;58475;49.662;9.636;2022-09-09T01:33:41;14.30;92.13
70851;DHT22;58475;49.662;9.636;2022-09-09T01:36:28;14.41;91.38
70851;DHT22;58475;49.662;9.636;2022-09-09T01:38:55;14.33;90.42
70851;DHT22;58475;49.662;9.636;2022-09-09T01:41:20;14.33;91.60
70851;DHT22;58475;49.662;9.636;2022-09-09T01:44:07;14.44;92.23
70851;DHT22;58475;49.662;9.636;2022-09-09T01:46:34;14.31;93.03
70851;DHT22;58475;49.662;9.636;2022-09-09T01:49:02;14.30;92.90
70851;DHT22;58475;49.662;9.636;2022-09-09T01:51:29;14.17;92.94
70851;DHT22;58475;49.662;9.636;2022-09-09T01:53:58;14.21;92.75
70851;DHT22;58475;49.662;9.636;2022-09-09T01:56:47;14.07;92.66
70851;DHT22;58475;49.662;9.636;2022-09-09T01:59:36;14.09;93.34
70851;DHT22;58475;49.662;9.636;2022-09-09T02:02:09;14.24;93.21
70851;DHT22;58475;49.662;9.636;2022-09-09T02:04:43;14.27;92.89
70851;DHT22;58475;49.662;9.636;2022-09-09T02:07:24;14.31;93.65
70851;DHT22;58475;49.662;9.636;2022-09-09T02:10:01;14.27;93.07
70851;DHT22;58475;49.662;9.636;2022-09-09T02:12:29;14.14;93.43
70851;DHT22;58475;49.662;9.636;2022-09-09T02:15:03;14.23;93.69
70851;DHT22;58475;49.662;9.636;2022-09-09T02:17:38;14.16;93.99
70851;DHT22;58475;49.662;9.636;2022-09-09T02:20:13;14.14;94.28
70851;DHT22;58475;49.662;9.636;2022-09-09T02:22:46;14.00;93.60
70851;DHT22;58475;49.662;9.636;2022-09-09T02:25:18;14.06;93.38
70851;DHT22;58475;49.662;9.636;2022-09-09T02:27:46;14.13;93.86
70851;DHT22;58475;49.662;9.636;2022-09-09T02:30:13;14.02;94.21
70851;DHT22;58475;49.662;9.636;2022-09-09T02:32:47;14.00;93.57
70851;DHT22;58475;49.662;9.636;2022-09-09T02:35:19;14.06;94.25
70851;DHT22;58475;49.662;9.636;2022-09-09T02:37:46;13.92;93.59
70851;DHT22;58475;49.662;9.636;2022-09-09T02:40:13;14.03;93.98
70851;DHT22;58475;49.662;9.636;2022-09-09T02:42:45;14.02;93.68
70851;DHT22;58475;49.662;9.636;2022-09-09T02:45:14;14.05;94.07
70851;DHT22;58475;49.662;9.636;2022-09-09T02:47:44;14.10;94.07
70851;DHT22;58475;49.662;9.636;2022-09-09T02:50:16;14.16;94.25
70851;DHT22;58475;49.662;9.636;2022-09-09T02:55:18;14.00;93.78
70851;DHT22;58475;49.662;9.636;2022-09-09T02:57:49;13.96;93.99
70851;DHT22;58475;49.662;9.636;2022-09-09T03:00:23;14.02;94.07
70851;DHT22;58475;49.662;9.636;2022-09-09T03:02:50;13.99;93.89
70851;DHT22;58475;49.662;9.636;2022-09-09T03:05:16;14.07;94.04
70851;DHT22;58475;49.662;9.636;2022-09-09T03:07:42;14.02;93.95
70851;DHT22;58475;49.662;9.636;2022-09-09T03:10:08;14.03;93.97
70851;DHT22;58475;49.662;9.636;2022-09-09T03:12:35;14.09;93.84
70851;DHT22;58475;49.662;9.636;2022-09-09T03:15:00;14.09;93.66
70851;DHT22;58475;49.662;9.636;2022-09-09T03:17:29;13.99;94.11
70851;DHT22;58475;49.662;9.636;2022-09-09T03:19:56;14.02;94.05
70851;DHT22;58475;49.662;9.636;2022-09-09T03:22:24;14.13;94.52
70851;DHT22;58475;49.662;9.636;2022-09-09T03:24:51;14.03;93.64
70851;DHT22;58475;49.662;9.636;2022-09-09T03:27:19;14.03;94.12
70851;DHT22;58475;49.662;9.636;2022-09-09T03:29:46;14.09;93.63
70851;DHT22;58475;49.662;9.636;2022-09-09T03:32:17;14.02;93.85
70851;DHT22;58475;49.662;9.636;2022-09-09T03:34:44;13.90;94.19
70851;DHT22;58475;49.662;9.636;2022-09-09T03:37:12;14.07;94.55
70851;DHT22;58475;49.662;9.636;2022-09-09T03:39:38;14.10;94.31
70851;DHT22;58475;49.662;9.636;2022-09-09T03:42:03;14.05;93.83
70851;DHT22;58475;49.662;9.636;2022-09-09T03:44:30;14.02;94.02
70851;DHT22;58475;49.662;9.636;2022-09-09T03:46:56;13.96;93.94
70851;DHT22;58475;49.662;9.636;2022-09-09T03:49:22;13.93;94.15
70851;DHT22;58475;49.662;9.636;2022-09-09T03:51:48;13.98;94.13
70851;DHT22;58475;49.662;9.636;2022-09-09T03:54:13;13.99;94.07
70851;DHT22;58475;49.662;9.636;2022-09-09T03:56:38;13.92;94.09
70851;DHT22;58475;49.662;9.636;2022-09-09T03:59:07;13.93;94.27
70851;DHT22;58475;49.662;9.636;2022-09-09T04:01:34;13.87;93.76
70851;DHT22;58475;49.662;9.636;2022-09-09T04:04:00;13.87;93.63
70851;DHT22;58475;49.662;9.636;2022-09-09T04:06:27;13.95;94.16
70851;DHT22;58475;49.662;9.636;2022-09-09T04:08:53;13.93;94.45
70851;DHT22;58475;49.662;9.636;2022-09-09T04:11:19;13.89;94.05
70851;DHT22;58475;49.662;9.636;2022-09-09T04:13:47;13.82;94.19
70851;DHT22;58475;49.662;9.636;2022-09-09T04:16:13;13.78;94.36
70851;DHT22;58475;49.662;9.636;2022-09-09T04:18:39;13.80;94.07
70851;DHT22;58475;49.662;9.636;2022-09-09T04:21:05;13.73;93.56
70851;DHT22;58475;49.662;9.636;2022-09-09T04:23:32;13.61;93.81
70851;DHT22;58475;49.662;9.636;2022-09-09T04:26:00;13.49;94.22
70851;DHT22;58475;49.662;9.636;2022-09-09T04:28:29;13.47;94.31
70851;DHT22;58475;49.662;9.636;2022-09-09T04:30:55;13.48;95.02
70851;DHT22;58475;49.662;9.636;2022-09-09T04:33:23;13.63;94.83
70851;DHT22;58475;49.662;9.636;2022-09-09T04:35:52;13.65;94.89
70851;DHT22;58475;49.662;9.636;2022-09-09T04:38:22;13.66;94.68
70851;DHT22;58475;49.662;9.636;2022-09-09T04:40:50;13.65;94.70
70851;DHT22;58475;49.662;9.636;2022-09-09T04:43:17;13.65;94.87
70851;DHT22;58475;49.662;9.636;2022-09-09T04:45:47;13.70;94.31
70851;DHT22;58475;49.662;9.636;2022-09-09T04:48:14;13.66;94.58
70851;DHT22;58475;49.662;9.636;2022-09-09T04:50:39;13.63;94.25
70851;DHT22;58475;49.662;9.636;2022-09-09T04:53:10;13.70;94.57
70851;DHT22;58475;49.662;9.636;2022-09-09T04:55:37;13.70;94.36
70851;DHT22;58475;49.662;9.636;2022-09-09T04:58:07;13.55;94.60
70851;DHT22;58475;49.662;9.636;2022-09-09T05:00:37;13.61;94.65
70851;DHT22;58475;49.662;9.636;2022-09-09T05:03:06;13.61;94.70
70851;DHT22;58475;49.662;9.636;2022-09-09T05:05:34;13.63;95.06
70851;DHT22;58475;49.662;9.636;2022-09-09T05:08:05;13.68;94.80
70851;DHT22;58475;49.662;9.636;2022-09-09T05:10:32;13.73;94.30
70851;DHT22;58475;49.662;9.636;2022-09-09T05:12:58;13.92;94.43
70851;DHT22;58475;49.662;9.636;2022-09-09T05:15:25;14.03;93.53
70851;DHT22;58475;49.662;9.636;2022-09-09T05:17:51;14.09;93.69
70851;DHT22;58475;49.662;9.636;2022-09-09T05:20:19;13.98;93.84
70851;DHT22;58475;49.662;9.636;2022-09-09T05:22:44;14.02;94.08
70851;DHT22;58475;49.662;9.636;2022-09-09T05:25:09;14.09;93.64
70851;DHT22;58475;49.662;9.636;2022-09-09T05:27:35;13.98;93.39
70851;DHT22;58475;49.662;9.636;2022-09-09T05:30:00;13.99;94.02
70851;DHT22;58475;49.662;9.636;2022-09-09T05:32:26;14.03;93.88
70851;DHT22;58475;49.662;9.636;2022-09-09T05:34:51;14.06;93.99
70851;DHT22;58475;49.662;9.636;2022-09-09T05:37:18;14.02;94.80
70851;DHT22;58475;49.662;9.636;2022-09-09T05:39:44;14.13;93.91
70851;DHT22;58475;49.662;9.636;2022-09-09T05:42:10;14.00;94.34
70851;DHT22;58475;49.662;9.636;2022-09-09T05:44:35;14.07;93.92
70851;DHT22;58475;49.662;9.636;2022-09-09T05:47:01;14.20;93.85
70851;DHT22;58475;49.662;9.636;2022-09-09T05:49:26;14.23;93.72
70851;DHT22;58475;49.662;9.636;2022-09-09T05:51:52;14.14;93.99
70851;DHT22;58475;49.662;9.636;2022-09-09T05:54:19;14.13;94.08
70851;DHT22;58475;49.662;9.636;2022-09-09T05:56:48;14.20;93.05
70851;DHT22;58475;49.662;9.636;2022-09-09T05:59:16;14.50;92.27
70851;DHT22;58475;49.662;9.636;2022-09-09T06:01:41;14.71;90.55
70851;DHT22;58475;49.662;9.636;2022-09-09T06:04:13;14.92;89.31
70851;DHT22;58475;49.662;9.636;2022-09-09T06:06:39;15.08;88.32
70851;DHT22;58475;49.662;9.636;2022-09-09T06:09:11;15.05;89.57
70851;DHT22;58475;49.662;9.636;2022-09-09T06:11:39;15.13;89.10
70851;DHT22;58475;49.662;9.636;2022-09-09T06:14:05;15.09;91.30
70851;DHT22;58475;49.662;9.636;2022-09-09T06:16:32;15.09;93.25
70851;DHT22;58475;49.662;9.636;2022-09-09T06:18:58;15.18;89.28
70851;DHT22;58475;49.662;9.636;2022-09-09T06:23:51;15.40;89.20
70851;DHT22;58475;49.662;9.636;2022-09-09T06:26:22;15.54;88.16
70851;DHT22;58475;49.662;9.636;2022-09-09T06:28:50;15.77;86.88
70851;DHT22;58475;49.662;9.636;2022-09-09T06:31:20;16.65;84.25
70851;DHT22;58475;49.662;9.636;2022-09-09T06:33:50;17.38;83.04
70851;DHT22;58475;49.662;9.636;2022-09-09T06:36:22;17.69;82.79
70851;DHT22;58475;49.662;9.636;2022-09-09T06:38:48;17.74;79.92
70851;DHT22;58475;49.662;9.636;2022-09-09T06:41:16;18.12;80.28
70851;DHT22;58475;49.662;9.636;2022-09-09T06:43:44;17.99;77.05
70851;DHT22;58475;49.662;9.636;2022-09-09T06:46:13;18.76;77.23
70851;DHT22;58475;49.662;9.636;2022-09-09T06:48:40;18.79;75.92
70851;DHT22;58475;49.662;9.636;2022-09-09T06:51:15;19.11;76.69
70851;DHT22;58475;49.662;9.636;2022-09-09T06:53:42;19.32;74.29
70851;DHT22;58475;49.662;9.636;2022-09-09T06:58:44;18.58;75.92
70851;DHT22;58475;49.662;9.636;2022-09-09T07:01:18;18.46;75.68
70851;DHT22;58475;49.662;9.636;2022-09-09T07:03:47;18.33;77.20
70851;DHT22;58475;49.662;9.636;2022-09-09T07:06:15;19.05;73.64
70851;DHT22;58475;49.662;9.636;2022-09-09T07:08:43;18.44;75.50
70851;DHT22;58475;49.662;9.636;2022-09-09T07:11:10;19.09;74.06
70851;DHT22;58475;49.662;9.636;2022-09-09T07:13:36;19.37;73.37
70851;DHT22;58475;49.662;9.636;2022-09-09T07:16:07;20.17;72.14
70851;DHT22;58475;49.662;9.636;2022-09-09T07:18:33;20.36;69.53
70851;DHT22;58475;49.662;9.636;2022-09-09T07:20:59;20.38;69.29
70851;DHT22;58475;49.662;9.636;2022-09-09T07:23:25;20.46;70.69
70851;DHT22;58475;49.662;9.636;2022-09-09T07:25:51;20.32;68.51
70851;DHT22;58475;49.662;9.636;2022-09-09T07:28:19;20.97;69.16
70851;DHT22;58475;49.662;9.636;2022-09-09T07:30:55;21.31;66.26
70851;DHT22;58475;49.662;9.636;2022-09-09T07:33:21;21.41;66.56
70851;DHT22;58475;49.662;9.636;2022-09-09T07:35:47;20.36;68.86
70851;DHT22;58475;49.662;9.636;2022-09-09T07:38:12;20.22;69.38
70851;DHT22;58475;49.662;9.636;2022-09-09T07:40:38;19.78;69.91
70851;DHT22;58475;49.662;9.636;2022-09-09T07:43:04;19.87;70.09
70851;DHT22;58475;49.662;9.636;2022-09-09T07:45:30;19.84;68.80
70851;DHT22;58475;49.662;9.636;2022-09-09T07:47:58;19.33;70.98
70851;DHT22;58475;49.662;9.636;2022-09-09T07:50:24;19.63;69.83
70851;DHT22;58475;49.662;9.636;2022-09-09T07:52:51;19.88;70.16
70851;DHT22;58475;49.662;9.636;2022-09-09T07:55:17;19.81;70.45
70851;DHT22;58475;49.662;9.636;2022-09-09T07:57:43;19.39;71.18
70851;DHT22;58475;49.662;9.636;2022-09-09T08:00:09;19.40;71.37
70851;DHT22;58475;49.662;9.636;2022-09-09T08:02:46;19.40;71.62
70851;DHT22;58475;49.662;9.636;2022-09-09T08:05:12;19.42;73.74
70851;DHT22;58475;49.662;9.636;2022-09-09T08:07:39;18.88;72.28
70851;DHT22;58475;49.662;9.636;2022-09-09T08:10:05;18.68;72.51
70851;DHT22;58475;49.662;9.636;2022-09-09T08:12:34;18.41;73.18
70851;DHT22;58475;49.662;9.636;2022-09-09T08:14:59;19.26;71.28
70851;DHT22;58475;49.662;9.636;2022-09-09T08:17:29;19.56;70.17
70851;DHT22;58475;49.662;9.636;2022-09-09T08:19:55;19.93;69.76
70851;DHT22;58475;49.662;9.636;2022-09-09T08:22:24;19.71;70.59
70851;DHT22;58475;49.662;9.636;2022-09-09T08:24:49;19.30;71.82
70851;DHT22;58475;49.662;9.636;2022-09-09T08:27:16;19.39;71.44
70851;DHT22;58475;49.662;9.636;2022-09-09T08:29:41;19.36;72.11
70851;DHT22;58475;49.662;9.636;2022-09-09T08:32:06;19.29;71.88
70851;DHT22;58475;49.662;9.636;2022-09-09T08:34:33;19.64;70.69
70851;DHT22;58475;49.662;9.636;2022-09-09T08:37:02;20.36;68.85
70851;DHT22;58475;49.662;9.636;2022-09-09T08:39:33;21.11;67.53
70851;DHT22;58475;49.662;9.636;2022-09-09T08:52:35;21.92;64.61
70851;DHT22;58475;49.662;9.636;2022-09-09T08:56:14;22.33;64.93
70851;DHT22;58475;49.662;9.636;2022-09-09T08:58:19;22.14;63.51
70851;DHT22;58475;49.662;9.636;2022-09-09T09:06:23;21.81;64.28
70851;DHT22;58475;49.662;9.636;2022-09-09T09:11:51;21.92;62.93
70851;DHT22;58475;49.662;9.636;2022-09-09T09:14:24;22.39;62.36
70851;DHT22;58475;49.662;9.636;2022-09-09T09:17:05;22.47;61.15
70851;DHT22;58475;49.662;9.636;2022-09-09T09:19:34;22.32;60.64
70851;DHT22;58475;49.662;9.636;2022-09-09T09:22:10;21.64;63.62
70851;DHT22;58475;49.662;9.636;2022-09-09T09:24:55;21.96;62.87
70851;DHT22;58475;49.662;9.636;2022-09-09T09:27:33;23.49;62.23
70851;DHT22;58475;49.662;9.636;2022-09-09T09:32:39;22.98;59.60
70851;DHT22;58475;49.662;9.636;2022-09-09T09:35:11;22.86;58.62
70851;DHT22;58475;49.662;9.636;2022-09-09T09:37:40;23.58;58.95
70851;DHT22;58475;49.662;9.636;2022-09-09T09:40:13;23.89;57.73
70851;DHT22;58475;49.662;9.636;2022-09-09T09:42:57;23.41;55.97
70851;DHT22;58475;49.662;9.636;2022-09-09T09:45:34;24.65;54.17
70851;DHT22;58475;49.662;9.636;2022-09-09T09:48:04;25.56;52.74
70851;DHT22;58475;49.662;9.636;2022-09-09T09:50:33;25.03;54.21
70851;DHT22;58475;49.662;9.636;2022-09-09T09:53:04;24.25;53.47
70851;DHT22;58475;49.662;9.636;2022-09-09T09:55:34;23.12;55.74
70851;DHT22;58475;49.662;9.636;2022-09-09T09:58:03;22.80;57.26
70851;DHT22;58475;49.662;9.636;2022-09-09T10:00:29;22.75;55.49
70851;DHT22;58475;49.662;9.636;2022-09-09T10:03:19;22.59;57.27
70851;DHT22;58475;49.662;9.636;2022-09-09T10:05:46;22.17;57.65
70851;DHT22;58475;49.662;9.636;2022-09-09T10:08:16;22.05;59.64
70851;DHT22;58475;49.662;9.636;2022-09-09T10:11:00;21.64;59.17
70851;DHT22;58475;49.662;9.636;2022-09-09T10:14:00;19.90;64.51
70851;DHT22;58475;49.662;9.636;2022-09-09T10:19:33;17.02;79.59
70851;DHT22;58475;49.662;9.636;2022-09-09T10:25:01;16.62;80.81
70851;DHT22;58475;49.662;9.636;2022-09-09T10:28:33;16.90;83.22
70851;DHT22;58475;49.662;9.636;2022-09-09T10:36:20;17.41;80.62
70851;DHT22;58475;49.662;9.636;2022-09-09T10:38:55;18.57;80.84
70851;DHT22;58475;49.662;9.636;2022-09-09T10:44:32;20.57;73.85
70851;DHT22;58475;49.662;9.636;2022-09-09T10:47:25;20.66;76.08
70851;DHT22;58475;49.662;9.636;2022-09-09T10:50:12;20.43;74.51
70851;DHT22;58475;49.662;9.636;2022-09-09T10:55:27;20.34;73.33
70851;DHT22;58475;49.662;9.636;2022-09-09T10:57:58;20.63;71.35
70851;DHT22;58475;49.662;9.636;2022-09-09T11:03:03;22.19;72.06
70851;DHT22;58475;49.662;9.636;2022-09-09T11:06:04;21.66;68.40
70851;DHT22;58475;49.662;9.636;2022-09-09T11:08:31;22.01;69.54
70851;DHT22;58475;49.662;9.636;2022-09-09T11:11:06;21.92;68.76
70851;DHT22;58475;49.662;9.636;2022-09-09T11:13:42;22.37;66.20
70851;DHT22;58475;49.662;9.636;2022-09-09T11:16:20;22.50;67.79
70851;DHT22;58475;49.662;9.636;2022-09-09T11:18:48;22.54;66.73
70851;DHT22;58475;49.662;9.636;2022-09-09T11:21:22;23.74;63.67
70851;DHT22;58475;49.662;9.636;2022-09-09T11:24:10;23.23;64.67
70851;DHT22;58475;49.662;9.636;2022-09-09T11:26:43;22.06;66.91
70851;DHT22;58475;49.662;9.636;2022-09-09T11:29:15;21.59;68.83
70851;DHT22;58475;49.662;9.636;2022-09-09T11:32:00;21.04;70.14
70851;DHT22;58475;49.662;9.636;2022-09-09T11:35:44;20.82;69.51
70851;DHT22;58475;49.662;9.636;2022-09-09T11:37:49;21.06;70.35
70851;DHT22;58475;49.662;9.636;2022-09-09T11:40:28;22.06;66.23
70851;DHT22;58475;49.662;9.636;2022-09-09T11:43:11;22.98;66.26
70851;DHT22;58475;49.662;9.636;2022-09-09T11:45:40;22.90;64.50
70851;DHT22;58475;49.662;9.636;2022-09-09T11:50:59;22.01;63.57
70851;DHT22;58475;49.662;9.636;2022-09-09T11:53:25;21.91;66.22
70851;DHT22;58475;49.662;9.636;2022-09-09T11:58:37;21.47;69.08
70851;DHT22;58475;49.662;9.636;2022-09-09T12:04:01;21.04;66.13
70851;DHT22;58475;49.662;9.636;2022-09-09T12:06:32;21.07;66.23
70851;DHT22;58475;49.662;9.636;2022-09-09T12:09:08;20.82;65.25
70851;DHT22;58475;49.662;9.636;2022-09-09T12:11:34;21.68;63.89
70851;DHT22;58475;49.662;9.636;2022-09-09T12:14:00;22.46;63.21
70851;DHT22;58475;49.662;9.636;2022-09-09T12:16:35;22.63;61.17
70851;DHT22;58475;49.662;9.636;2022-09-09T12:19:15;23.69;59.11
70851;DHT22;58475;49.662;9.636;2022-09-09T12:24:44;24.20;58.45
70851;DHT22;58475;49.662;9.636;2022-09-09T12:27:27;24.45;57.65
70851;DHT22;58475;49.662;9.636;2022-09-09T12:30:01;23.70;56.36
70851;DHT22;58475;49.662;9.636;2022-09-09T12:32:28;23.81;53.85
70851;DHT22;58475;49.662;9.636;2022-09-09T12:34:59;23.35;54.65
70851;DHT22;58475;49.662;9.636;2022-09-09T12:37:35;23.05;54.41
70851;DHT22;58475;49.662;9.636;2022-09-09T12:40:06;22.49;55.17
70851;DHT22;58475;49.662;9.636;2022-09-09T12:42:43;23.56;53.89
70851;DHT22;58475;49.662;9.636;2022-09-09T12:45:19;23.65;52.49
70851;DHT22;58475;49.662;9.636;2022-09-09T12:47:49;22.78;51.71
70851;DHT22;58475;49.662;9.636;2022-09-09T12:50:24;23.37;51.84
70851;DHT22;58475;49.662;9.636;2022-09-09T12:52:53;22.67;52.57
70851;DHT22;58475;49.662;9.636;2022-09-09T12:55:21;23.12;53.45
70851;DHT22;58475;49.662;9.636;2022-09-09T12:57:50;22.70;52.98
70851;DHT22;58475;49.662;9.636;2022-09-09T13:00:22;22.56;51.94
70851;DHT22;58475;49.662;9.636;2022-09-09T13:02:49;22.35;51.35
70851;DHT22;58475;49.662;9.636;2022-09-09T13:05:18;22.65;52.50
70851;DHT22;58475;49.662;9.636;2022-09-09T13:07:44;23.04;51.28
70851;DHT22;58475;49.662;9.636;2022-09-09T13:10:14;22.68;52.04
70851;DHT22;58475;49.662;9.636;2022-09-09T13:12:41;22.84;52.06
70851;DHT22;58475;49.662;9.636;2022-09-09T13:15:20;22.91;50.41
70851;DHT22;58475;49.662;9.636;2022-09-09T13:17:54;22.95;53.04
70851;DHT22;58475;49.662;9.636;2022-09-09T13:20:21;22.67;53.14
70851;DHT22;58475;49.662;9.636;2022-09-09T13:22:49;22.56;53.07
70851;DHT22;58475;49.662;9.636;2022-09-09T13:25:25;22.40;53.48
70851;DHT22;58475;49.662;9.636;2022-09-09T13:28:03;22.08;55.01
70851;DHT22;58475;49.662;9.636;2022-09-09T13:30:34;22.13;54.80
70851;DHT22;58475;49.662;9.636;2022-09-09T13:35:35;22.33;54.40
70851;DHT22;58475;49.662;9.636;2022-09-09T13:38:10;22.56;54.06
70851;DHT22;58475;49.662;9.636;2022-09-09T13:40:35;22.91;53.43
70851;DHT22;58475;49.662;9.636;2022-09-09T13:43:02;22.90;53.41
70851;DHT22;58475;49.662;9.636;2022-09-09T13:45:28;22.36;53.68
70851;DHT22;58475;49.662;9.636;2022-09-09T13:47:54;22.57;54.05
70851;DHT22;58475;49.662;9.636;2022-09-09T13:50:24;22.59;54.09
70851;DHT22;58475;49.662;9.636;2022-09-09T13:52:57;22.88;53.87
70851;DHT22;58475;49.662;9.636;2022-09-09T13:55:25;22.90;52.40
70851;DHT22;58475;49.662;9.636;2022-09-09T13:58:02;22.61;51.08
70851;DHT22;58475;49.662;9.636;2022-09-09T14:00:33;22.26;51.59
70851;DHT22;58475;49.662;9.636;2022-09-09T14:02:59;22.05;51.74
70851;DHT22;58475;49.662;9.636;2022-09-09T14:05:29;21.89;51.48
70851;DHT22;58475;49.662;9.636;2022-09-09T14:07:55;21.99;53.39
70851;DHT22;58475;49.662;9.636;2022-09-09T14:10:20;21.85;53.71
70851;DHT22;58475;49.662;9.636;2022-09-09T14:12:46;21.77;54.65
70851;DHT22;58475;49.662;9.636;2022-09-09T14:15:12;21.71;55.01
70851;DHT22;58475;49.662;9.636;2022-09-09T14:17:37;21.55;54.93
70851;DHT22;58475;49.662;9.636;2022-09-09T14:20:03;21.50;54.74
70851;DHT22;58475;49.662;9.636;2022-09-09T14:22:31;21.00;57.52
70851;DHT22;58475;49.662;9.636;2022-09-09T14:24:56;20.83;61.08
70851;DHT22;58475;49.662;9.636;2022-09-09T14:27:22;20.31;64.41
70851;DHT22;58475;49.662;9.636;2022-09-09T14:29:48;20.28;65.11
70851;DHT22;58475;49.662;9.636;2022-09-09T14:32:13;20.55;64.78
70851;DHT22;58475;49.662;9.636;2022-09-09T14:34:38;20.63;65.62
70851;DHT22;58475;49.662;9.636;2022-09-09T14:37:07;20.84;62.90
70851;DHT22;58475;49.662;9.636;2022-09-09T14:39:32;21.03;63.29
70851;DHT22;58475;49.662;9.636;2022-09-09T14:41:57;20.75;67.27
70851;DHT22;58475;49.662;9.636;2022-09-09T14:44:23;20.96;66.08
70851;DHT22;58475;49.662;9.636;2022-09-09T14:46:48;21.06;64.48
70851;DHT22;58475;49.662;9.636;2022-09-09T14:49:16;20.94;58.35
70851;DHT22;58475;49.662;9.636;2022-09-09T14:51:42;21.04;59.78
70851;DHT22;58475;49.662;9.636;2022-09-09T14:54:07;20.90;57.58
70851;DHT22;58475;49.662;9.636;2022-09-09T14:56:34;20.90;56.15
70851;DHT22;58475;49.662;9.636;2022-09-09T14:59:00;20.80;58.32
70851;DHT22;58475;49.662;9.636;2022-09-09T15:01:29;20.75;58.15
70851;DHT22;58475;49.662;9.636;2022-09-09T15:04:00;21.06;60.05
70851;DHT22;58475;49.662;9.636;2022-09-09T15:06:27;20.80;58.08
70851;DHT22;58475;49.662;9.636;2022-09-09T15:08:54;20.84;58.90
70851;DHT22;58475;49.662;9.636;2022-09-09T15:11:23;20.65;59.04
70851;DHT22;58475;49.662;9.636;2022-09-09T15:13:51;20.53;60.24
70851;DHT22;58475;49.662;9.636;2022-09-09T15:16:19;20.32;60.57
70851;DHT22;58475;49.662;9.636;2022-09-09T15:18:45;20.42;61.75
70851;DHT22;58475;49.662;9.636;2022-09-09T15:21:12;20.26;61.81
70851;DHT22;58475;49.662;9.636;2022-09-09T15:23:39;20.14;63.93
70851;DHT22;58475;49.662;9.636;2022-09-09T15:26:05;20.10;63.62
70851;DHT22;58475;49.662;9.636;2022-09-09T15:28:35;20.08;62.60
70851;DHT22;58475;49.662;9.636;2022-09-09T15:31:09;20.05;62.31
70851;DHT22;58475;49.662;9.636;2022-09-09T15:33:35;20.17;61.45
70851;DHT22;58475;49.662;9.636;2022-09-09T15:36:23;20.38;58.83
70851;DHT22;58475;49.662;9.636;2022-09-09T15:38:49;20.34;61.58
70851;DHT22;58475;49.662;9.636;2022-09-09T15:41:15;20.17;60.70
70851;DHT22;58475;49.662;9.636;2022-09-09T15:43:45;19.77;61.86
70851;DHT22;58475;49.662;9.636;2022-09-09T15:48:43;20.36;60.99
70851;DHT22;58475;49.662;9.636;2022-09-09T15:51:10;20.39;60.17
70851;DHT22;58475;49.662;9.636;2022-09-09T15:53:38;20.75;60.97
70851;DHT22;58475;49.662;9.636;2022-09-09T15:56:07;20.82;59.84
70851;DHT22;58475;49.662;9.636;2022-09-09T15:58:33;20.75;59.23
70851;DHT22;58475;49.662;9.636;2022-09-09T16:01:07;20.43;60.83
70851;DHT22;58475;49.662;9.636;2022-09-09T16:03:37;20.22;61.34
70851;DHT22;58475;49.662;9.636;2022-09-09T16:06:04;19.91;61.98
70851;DHT22;58475;49.662;9.636;2022-09-09T16:08:38;19.87;62.70
70851;DHT22;58475;49.662;9.636;2022-09-09T16:11:18;19.70;63.07
70851;DHT22;58475;49.662;9.636;2022-09-09T16:13:46;19.60;63.43
70851;DHT22;58475;49.662;9.636;2022-09-09T16:16:13;19.66;63.92
70851;DHT22;58475;49.662;9.636;2022-09-09T16:18:41;19.53;64.93
70851;DHT22;58475;49.662;9.636;2022-09-09T16:21:07;19.46;64.86
70851;DHT22;58475;49.662;9.636;2022-09-09T16:23:34;19.40;64.90
70851;DHT22;58475;49.662;9.636;2022-09-09T16:26:00;19.39;65.47
70851;DHT22;58475;49.662;9.636;2022-09-09T16:28:26;19.39;66.34
70851;DHT22;58475;49.662;9.636;2022-09-09T16:30:51;19.30;65.78
70851;DHT22;58475;49.662;9.636;2022-09-09T16:33:17;19.27;65.76
70851;DHT22;58475;49.662;9.636;2022-09-09T16:35:43;19.26;66.32
70851;DHT22;58475;49.662;9.636;2022-09-09T16:38:09;19.37;65.75
70851;DHT22;58475;49.662;9.636;2022-09-09T16:40:38;19.30;66.07
70851;DHT22;58475;49.662;9.636;2022-09-09T16:43:07;19.29;67.34
70851;DHT22;58475;49.662;9.636;2022-09-09T16:45:41;19.30;66.11
70851;DHT22;58475;49.662;9.636;2022-09-09T16:48:06;19.23;65.95
70851;DHT22;58475;49.662;9.636;2022-09-09T16:50:32;19.23;66.19
70851;DHT22;58475;49.662;9.636;2022-09-09T16:52:57;19.29;67.17
70851;DHT22;58475;49.662;9.636;2022-09-09T16:55:23;19.23;66.87
70851;DHT22;58475;49.662;9.636;2022-09-09T16:57:49;19.23;65.75
70851;DHT22;58475;49.662;9.636;2022-09-09T17:00:15;19.20;65.84
70851;DHT22;58475;49.662;9.636;2022-09-09T17:02:42;19.19;65.87
70851;DHT22;58475;49.662;9.636;2022-09-09T17:05:08;19.05;66.41
70851;DHT22;58475;49.662;9.636;2022-09-09T17:07:34;19.19;66.12
70851;DHT22;58475;49.662;9.636;2022-09-09T17:10:01;19.22;66.42
70851;DHT22;58475;49.662;9.636;2022-09-09T17:12:26;19.11;66.78
70851;DHT22;58475;49.662;9.636;2022-09-09T17:14:51;19.09;66.60
70851;DHT22;58475;49.662;9.636;2022-09-09T17:17:17;18.99;66.75
70851;DHT22;58475;49.662;9.636;2022-09-09T17:19:42;19.04;66.77
70851;DHT22;58475;49.662;9.636;2022-09-09T17:22:07;18.89;67.16
70851;DHT22;58475;49.662;9.636;2022-09-09T17:24:33;18.91;67.73
70851;DHT22;58475;49.662;9.636;2022-09-09T17:26:59;18.74;68.39
70851;DHT22;58475;49.662;9.636;2022-09-09T17:29:25;18.34;67.61